createdAt,value
2023-06-26T00:01:22.124Z,7.47
2023-06-26T00:04:25.005Z,6.35
2023-06-26T00:07:27.711Z,7.70
2023-06-26T00:10:30.563Z,5.65
2023-06-26T00:13:33.343Z,8.35
2023-06-26T00:16:36.138Z,6.25
2023-06-26T00:19:38.884Z,8.95
2023-06-26T00:22:42.360Z,7.17
2023-06-26T00:25:45.830Z,9.68
2023-06-26T00:28:48.546Z,7.18
2023-06-26T00:31:51.294Z,7.50
2023-06-26T00:34:54.533Z,6.07
2023-06-26T00:37:57.320Z,6.93
2023-06-26T00:41:00.148Z,8.05
2023-06-26T00:44:02.865Z,6.18
2023-06-26T00:47:06.193Z,6.85
2023-06-26T00:50:10.147Z,7.78
2023-06-26T00:53:13.303Z,7.00
2023-06-26T00:56:16.993Z,9.18
2023-06-26T00:59:19.817Z,9.20
2023-06-26T01:02:24.502Z,6.88
2023-06-26T01:05:29.319Z,9.68
2023-06-26T01:08:32.236Z,8.33
2023-06-26T01:11:34.937Z,7.95
2023-06-26T01:14:38.019Z,7.30
2023-06-26T01:17:41.708Z,9.68
2023-06-26T01:20:47.578Z,6.40
2023-06-26T01:24:10.652Z,6.67
2023-06-26T01:27:14.798Z,7.45
2023-06-26T01:30:19.291Z,10.43
2023-06-26T01:33:22.502Z,12.30
2023-06-26T01:36:28.564Z,6.10
2023-06-26T01:39:31.317Z,8.50
2023-06-26T01:42:35.143Z,7.75
2023-06-26T01:45:38.713Z,6.22
2023-06-26T01:49:01.835Z,8.70
2023-06-26T01:52:24.713Z,7.95
2023-06-26T01:55:50.643Z,7.60
2023-06-26T01:58:56.221Z,8.10
2023-06-26T02:01:59.068Z,8.85
2023-06-26T02:05:01.928Z,8.18
2023-06-26T02:08:05.152Z,11.93
2023-06-26T02:11:07.963Z,10.43
2023-06-26T02:14:12.203Z,6.63
2023-06-26T02:17:14.976Z,14.50
2023-06-26T02:20:17.830Z,7.57
2023-06-26T02:23:20.601Z,7.10
2023-06-26T02:26:23.601Z,10.17
2023-06-26T02:29:26.388Z,9.30
2023-06-26T02:32:29.137Z,7.47
2023-06-26T02:35:34.178Z,8.02
2023-06-26T02:38:37.521Z,7.88
2023-06-26T02:41:40.488Z,9.80
2023-06-26T02:44:43.722Z,10.18
2023-06-26T02:47:46.718Z,9.32
2023-06-26T02:50:49.568Z,10.10
2023-06-26T02:53:52.372Z,7.72
2023-06-26T02:56:55.233Z,8.23
2023-06-26T03:00:02.986Z,9.15
2023-06-26T03:03:06.976Z,12.02
2023-06-26T03:06:10.037Z,7.68
2023-06-26T03:09:12.882Z,9.18
2023-06-26T03:12:15.611Z,7.60
2023-06-26T03:15:20.523Z,11.30
2023-06-26T03:18:23.582Z,7.85
2023-06-26T03:21:26.326Z,7.25
2023-06-26T03:24:30.007Z,8.52
2023-06-26T03:27:33.926Z,7.43
2023-06-26T03:30:36.980Z,7.95
2023-06-26T03:33:39.973Z,7.30
2023-06-26T03:36:44.107Z,8.50
2023-06-26T03:39:47.153Z,8.27
2023-06-26T03:42:50.036Z,9.40
2023-06-26T03:45:53.487Z,12.05
2023-06-26T03:48:56.309Z,8.23
2023-06-26T03:51:59.056Z,6.63
2023-06-26T03:55:02.090Z,10.77
2023-06-26T03:58:05.339Z,9.83
2023-06-26T04:01:08.706Z,9.88
2023-06-26T04:04:11.486Z,11.35
2023-06-26T04:07:14.298Z,14.68
2023-06-26T04:10:17.091Z,9.05
2023-06-26T04:13:19.829Z,7.00
2023-06-26T04:16:26.416Z,9.23
2023-06-26T04:19:29.224Z,8.80
2023-06-26T04:22:31.967Z,12.05
2023-06-26T04:25:34.958Z,11.65
2023-06-26T04:28:37.877Z,11.17
2023-06-26T04:31:41.295Z,8.63
2023-06-26T04:34:47.625Z,10.52
2023-06-26T04:37:50.350Z,7.05
2023-06-26T04:40:53.053Z,7.57
2023-06-26T04:43:55.760Z,9.20
2023-06-26T04:46:58.555Z,8.38
2023-06-26T04:50:01.320Z,9.63
2023-06-26T04:53:04.164Z,8.10
2023-06-26T04:56:06.934Z,10.57
2023-06-26T04:59:14.186Z,12.53
2023-06-26T05:02:16.968Z,11.02
2023-06-26T05:05:19.728Z,10.57
2023-06-26T05:08:24.372Z,10.20
2023-06-26T05:11:27.261Z,11.35
2023-06-26T05:14:30.057Z,11.77
2023-06-26T05:17:32.793Z,10.25
2023-06-26T05:20:37.632Z,11.38
2023-06-26T05:23:40.876Z,11.63
2023-06-26T05:26:44.062Z,9.73
2023-06-26T05:29:47.061Z,9.00
2023-06-26T05:32:50.840Z,10.55
2023-06-26T05:35:54.751Z,10.13
2023-06-26T05:38:57.789Z,9.57
2023-06-26T05:42:00.903Z,12.55
2023-06-26T05:45:03.718Z,12.20
2023-06-26T05:48:06.769Z,10.02
2023-06-26T05:51:10.103Z,9.15
2023-06-26T05:54:14.455Z,8.43
2023-06-26T05:57:17.468Z,9.70
2023-06-26T06:00:20.617Z,10.50
2023-06-26T06:03:24.444Z,9.45
2023-06-26T06:06:27.436Z,7.90
2023-06-26T06:09:30.272Z,8.95
2023-06-26T06:12:33.182Z,8.50
2023-06-26T06:15:35.928Z,7.23
2023-06-26T06:18:38.646Z,7.57
2023-06-26T06:21:41.358Z,8.27
2023-06-26T06:24:45.123Z,6.68
2023-06-26T06:27:47.937Z,8.15
2023-06-26T06:30:50.965Z,6.30
2023-06-26T06:33:54.036Z,6.63
2023-06-26T06:36:56.765Z,6.57
2023-06-26T06:40:00.715Z,8.25
2023-06-26T06:43:03.526Z,8.43
2023-06-26T06:46:06.517Z,9.73
2023-06-26T06:49:10.506Z,7.68
2023-06-26T06:52:13.208Z,7.03
2023-06-26T06:55:16.017Z,8.65
2023-06-26T06:58:20.376Z,8.85
2023-06-26T07:01:23.133Z,8.67
2023-06-26T07:04:26.012Z,9.10
2023-06-26T07:07:32.080Z,10.07
2023-06-26T07:10:35.218Z,8.00
2023-06-26T07:13:38.638Z,6.93
2023-06-26T07:16:41.337Z,7.70
2023-06-26T07:19:44.112Z,8.77
2023-06-26T07:22:48.278Z,7.43
2023-06-26T07:25:51.027Z,6.80
2023-06-26T07:28:53.822Z,7.50
2023-06-26T07:31:56.832Z,7.00
2023-06-26T07:34:59.589Z,7.90
2023-06-26T07:38:02.351Z,7.55
2023-06-26T07:41:05.116Z,7.65
2023-06-26T07:44:07.846Z,8.70
2023-06-26T07:47:11.308Z,9.20
2023-06-26T07:50:17.037Z,8.00
2023-06-26T07:53:19.765Z,7.88
2023-06-26T07:56:22.570Z,7.65
2023-06-26T07:59:27.021Z,10.40
2023-06-26T08:02:30.212Z,7.33
2023-06-26T08:05:33.148Z,8.68
2023-06-26T08:08:36.034Z,7.13
2023-06-26T08:11:38.740Z,7.05
2023-06-26T08:14:41.506Z,7.70
2023-06-26T08:17:44.402Z,7.80
2023-06-26T08:20:47.205Z,8.15
2023-06-26T08:23:49.924Z,6.40
2023-06-26T08:26:52.684Z,7.57
2023-06-26T08:29:55.413Z,6.70
2023-06-26T08:32:58.325Z,6.50
2023-06-26T08:36:01.136Z,8.38
2023-06-26T08:39:06.248Z,6.97
2023-06-26T08:42:09.185Z,6.70
2023-06-26T08:45:13.225Z,8.02
2023-06-26T08:48:16.426Z,7.63
2023-06-26T08:51:24.474Z,8.00
2023-06-26T08:54:39.418Z,6.45
2023-06-26T08:57:42.921Z,8.57
2023-06-26T09:00:47.064Z,7.50
2023-06-26T09:03:50.025Z,6.27
2023-06-26T09:06:53.020Z,7.00
2023-06-26T09:09:55.830Z,6.70
2023-06-26T09:12:59.848Z,7.55
2023-06-26T09:16:10.423Z,6.93
2023-06-26T09:19:13.754Z,7.27
2023-06-26T09:22:16.836Z,6.65
2023-06-26T09:25:20.340Z,5.25
2023-06-26T09:28:23.708Z,6.10
2023-06-26T09:31:40.294Z,6.07
2023-06-26T09:34:47.725Z,6.67
2023-06-26T09:37:50.920Z,5.72
2023-06-26T09:40:53.774Z,7.00
2023-06-26T09:44:02.000Z,6.07
2023-06-26T09:47:05.419Z,6.82
2023-06-26T09:50:22.699Z,5.40
2023-06-26T09:53:26.902Z,4.30
2023-06-26T09:56:30.884Z,4.35
2023-06-26T09:59:34.616Z,5.05
2023-06-26T10:02:37.481Z,5.43
2023-06-26T10:05:41.571Z,4.33
2023-06-26T10:08:44.762Z,5.45
2023-06-26T10:12:13.528Z,4.32
2023-06-26T10:15:18.039Z,6.07
2023-06-26T10:18:24.407Z,6.90
2023-06-26T10:21:29.573Z,4.00
2023-06-26T10:24:37.193Z,3.50
2023-06-26T10:27:46.544Z,4.18
2023-06-26T10:30:52.331Z,4.00
2023-06-26T10:33:55.608Z,3.95
2023-06-26T10:37:03.035Z,3.90
2023-06-26T10:40:06.552Z,4.10
2023-06-26T10:43:10.529Z,4.57
2023-06-26T10:46:16.429Z,4.80
2023-06-26T10:49:19.658Z,4.90
2023-06-26T10:52:22.389Z,6.10
2023-06-26T10:55:29.421Z,4.75
2023-06-26T10:58:36.025Z,4.20
2023-06-26T11:01:43.604Z,4.43
2023-06-26T11:04:54.775Z,6.10
2023-06-26T11:08:09.283Z,4.20
2023-06-26T11:11:12.071Z,4.82
2023-06-26T11:14:15.076Z,5.10
2023-06-26T11:17:20.082Z,4.30
2023-06-26T11:20:23.049Z,4.68
2023-06-26T11:23:26.606Z,4.40
2023-06-26T11:26:29.359Z,4.10
2023-06-26T11:29:32.644Z,4.10
2023-06-26T11:32:36.079Z,4.43
2023-06-26T11:35:39.888Z,6.15
2023-06-26T11:38:42.625Z,5.00
2023-06-26T11:41:46.642Z,4.93
2023-06-26T11:44:49.462Z,4.65
2023-06-26T11:47:52.541Z,4.35
2023-06-26T11:50:55.846Z,4.43
2023-06-26T11:53:58.614Z,4.17
2023-06-26T11:57:02.348Z,3.88
2023-06-26T12:00:25.366Z,4.80
2023-06-26T12:03:28.467Z,4.47
2023-06-26T12:06:34.697Z,5.00
2023-06-26T12:09:43.368Z,4.17
2023-06-26T12:12:47.325Z,3.65
2023-06-26T12:15:51.621Z,4.05
2023-06-26T12:19:02.810Z,3.90
2023-06-26T12:22:08.826Z,3.83
2023-06-26T12:25:11.575Z,3.80
2023-06-26T12:28:18.859Z,3.40
2023-06-26T12:31:22.741Z,3.50
2023-06-26T12:34:34.622Z,3.28
2023-06-26T12:37:43.487Z,3.22
2023-06-26T12:40:47.344Z,3.63
2023-06-26T12:43:57.221Z,2.70
2023-06-26T12:47:02.117Z,3.00
2023-06-26T12:50:06.884Z,3.15
2023-06-26T12:53:09.643Z,7.65
2023-06-26T12:56:12.488Z,2.83
2023-06-26T12:59:15.194Z,3.35
2023-06-26T13:02:18.127Z,3.70
2023-06-26T13:05:21.013Z,2.70
2023-06-26T13:08:23.763Z,2.78
2023-06-26T13:11:27.063Z,3.30
2023-06-26T13:14:29.900Z,2.97
2023-06-26T13:17:32.664Z,5.88
2023-06-26T13:20:35.414Z,5.32
2023-06-26T13:23:38.178Z,4.03
2023-06-26T13:26:41.064Z,3.87
2023-06-26T13:29:43.789Z,3.17
2023-06-26T13:32:47.369Z,4.25
2023-06-26T13:35:50.168Z,3.47
2023-06-26T13:38:57.039Z,3.58
2023-06-26T13:42:00.105Z,3.00
2023-06-26T13:45:08.156Z,3.42
2023-06-26T13:48:18.956Z,3.60
2023-06-26T13:51:21.807Z,3.70
2023-06-26T13:54:24.605Z,3.00
2023-06-26T13:57:29.707Z,3.07
2023-06-26T14:00:34.638Z,3.95
2023-06-26T14:03:37.466Z,4.10
2023-06-26T14:06:40.293Z,3.78
2023-06-26T14:09:42.985Z,4.05
2023-06-26T14:12:45.765Z,3.73
2023-06-26T14:15:48.547Z,4.65
2023-06-26T14:18:51.232Z,4.13
2023-06-26T14:21:53.989Z,3.33
2023-06-26T14:24:56.718Z,4.20
2023-06-26T14:28:00.158Z,3.60
2023-06-26T14:31:03.022Z,3.33
2023-06-26T14:34:05.920Z,4.47
2023-06-26T14:37:08.742Z,3.90
2023-06-26T14:40:12.283Z,4.03
2023-06-26T14:43:15.597Z,4.07
2023-06-26T14:46:19.659Z,3.72
2023-06-26T14:49:22.748Z,4.65
2023-06-26T14:52:25.437Z,4.10
2023-06-26T14:55:28.226Z,4.57
2023-06-26T14:58:30.931Z,3.83
2023-06-26T15:01:33.805Z,3.90
2023-06-26T15:04:36.605Z,4.47
2023-06-26T15:07:39.470Z,4.05
2023-06-26T15:10:42.607Z,4.80
2023-06-26T15:13:47.140Z,6.63
2023-06-26T15:16:49.999Z,5.00
2023-06-26T15:19:52.737Z,4.15
2023-06-26T15:22:55.500Z,4.80
2023-06-26T15:25:58.280Z,4.70
2023-06-26T15:29:00.986Z,4.43
2023-06-26T15:32:03.837Z,4.30
2023-06-26T15:35:07.207Z,4.22
2023-06-26T15:38:09.990Z,4.15
2023-06-26T15:41:14.318Z,4.32
2023-06-26T15:44:17.093Z,6.47
2023-06-26T15:47:19.834Z,5.35
2023-06-26T15:50:23.046Z,4.78
2023-06-26T15:53:39.153Z,3.67
2023-06-26T15:56:41.982Z,5.05
2023-06-26T15:59:44.671Z,6.90
2023-06-26T16:02:47.489Z,4.18
2023-06-26T16:05:50.741Z,3.95
2023-06-26T16:08:54.116Z,5.32
2023-06-26T16:11:56.960Z,4.25
2023-06-26T16:14:59.917Z,4.63
2023-06-26T16:18:03.491Z,4.68
2023-06-26T16:21:06.490Z,4.78
2023-06-26T16:24:09.494Z,5.03
2023-06-26T16:27:14.356Z,4.80
2023-06-26T16:30:17.777Z,4.97
2023-06-26T16:33:20.787Z,4.97
2023-06-26T16:36:23.524Z,4.90
2023-06-26T16:39:26.257Z,4.03
2023-06-26T16:42:28.969Z,4.63
2023-06-26T16:45:31.840Z,4.37
2023-06-26T16:48:34.631Z,4.65
2023-06-26T16:51:37.384Z,4.60
2023-06-26T16:54:40.224Z,5.53
2023-06-26T16:57:44.345Z,4.80
2023-06-26T17:00:47.615Z,4.77
2023-06-26T17:03:50.381Z,4.85
2023-06-26T17:06:53.157Z,4.63
2023-06-26T17:09:56.527Z,4.80
2023-06-26T17:12:59.250Z,4.50
2023-06-26T17:16:02.253Z,5.93
2023-06-26T17:19:06.874Z,4.22
2023-06-26T17:22:09.789Z,5.18
2023-06-26T17:25:12.932Z,4.70
2023-06-26T17:28:15.706Z,4.55
2023-06-26T17:31:18.578Z,5.70
2023-06-26T17:34:21.298Z,4.38
2023-06-26T17:37:24.414Z,4.85
2023-06-26T17:40:27.368Z,4.50
2023-06-26T17:43:30.286Z,5.95
2023-06-26T17:46:33.055Z,5.03
2023-06-26T17:49:35.811Z,5.65
2023-06-26T17:52:38.554Z,4.65
2023-06-26T17:55:41.403Z,4.88
2023-06-26T17:58:44.143Z,7.88
2023-06-26T18:01:47.162Z,4.40
2023-06-26T18:04:50.109Z,4.65
2023-06-26T18:08:04.057Z,4.78
2023-06-26T18:11:07.443Z,5.45
2023-06-26T18:14:10.413Z,5.40
2023-06-26T18:17:15.322Z,6.30
2023-06-26T18:20:18.133Z,6.07
2023-06-26T18:23:20.929Z,5.22
2023-06-26T18:26:23.869Z,5.55
2023-06-26T18:29:26.835Z,9.00
2023-06-26T18:32:29.602Z,10.47
2023-06-26T18:35:32.417Z,8.00
2023-06-26T18:38:35.195Z,6.60
2023-06-26T18:41:37.919Z,10.50
2023-06-26T18:44:40.898Z,8.23
2023-06-26T18:47:44.489Z,6.70
2023-06-26T18:50:47.380Z,9.88
2023-06-26T18:53:50.113Z,9.45
2023-06-26T18:56:52.891Z,5.35
2023-06-26T18:59:55.660Z,4.93
2023-06-26T19:02:59.064Z,4.60
2023-06-26T19:06:01.927Z,4.45
2023-06-26T19:09:04.980Z,4.85
2023-06-26T19:12:08.373Z,6.53
2023-06-26T19:15:11.985Z,5.30
2023-06-26T19:18:14.901Z,5.63
2023-06-26T19:21:17.912Z,5.97
2023-06-26T19:24:20.824Z,5.68
2023-06-26T19:27:23.644Z,5.07
2023-06-26T19:30:26.449Z,6.75
2023-06-26T19:33:29.421Z,7.20
2023-06-26T19:36:32.179Z,5.07
2023-06-26T19:39:35.030Z,6.07
2023-06-26T19:42:37.983Z,6.28
2023-06-26T19:45:41.236Z,6.03
2023-06-26T19:48:45.070Z,4.90
2023-06-26T19:51:48.788Z,6.82
2023-06-26T19:54:51.686Z,6.88
2023-06-26T19:57:54.736Z,5.13
2023-06-26T20:00:57.422Z,5.70
2023-06-26T20:04:05.943Z,6.43
2023-06-26T20:07:09.213Z,5.68
2023-06-26T20:10:12.304Z,8.23
2023-06-26T20:13:16.575Z,5.70
2023-06-26T20:16:19.359Z,7.75
2023-06-26T20:19:22.735Z,7.40
2023-06-26T20:22:25.540Z,5.07
2023-06-26T20:25:29.307Z,5.10
2023-06-26T20:28:31.991Z,6.38
2023-06-26T20:31:34.792Z,5.60
2023-06-26T20:34:37.771Z,5.17
2023-06-26T20:37:40.551Z,4.93
2023-06-26T20:40:43.925Z,7.07
2023-06-26T20:43:46.941Z,5.85
2023-06-26T20:46:57.167Z,6.10
2023-06-26T20:50:01.665Z,5.17
2023-06-26T20:53:04.721Z,5.72
2023-06-26T20:56:07.920Z,5.95
2023-06-26T20:59:10.694Z,6.38
2023-06-26T21:02:13.434Z,4.93
2023-06-26T21:05:16.274Z,4.93
2023-06-26T21:08:19.040Z,5.65
2023-06-26T21:11:21.827Z,5.57
2023-06-26T21:14:24.579Z,5.85
2023-06-26T21:17:27.373Z,6.18
2023-06-26T21:20:30.380Z,5.50
2023-06-26T21:23:33.182Z,4.93
2023-06-26T21:26:36.040Z,6.55
2023-06-26T21:29:38.765Z,4.63
2023-06-26T21:32:41.729Z,5.75
2023-06-26T21:35:44.909Z,4.80
2023-06-26T21:38:48.006Z,6.15
2023-06-26T21:41:51.326Z,5.88
2023-06-26T21:44:54.081Z,8.57
2023-06-26T21:47:56.843Z,6.43
2023-06-26T21:50:59.573Z,7.80
2023-06-26T21:54:03.236Z,6.78
2023-06-26T21:57:06.307Z,4.97
2023-06-26T22:00:13.913Z,6.18
2023-06-26T22:03:16.880Z,6.45
2023-06-26T22:06:19.650Z,6.07
2023-06-26T22:09:22.394Z,7.97
2023-06-26T22:12:25.125Z,4.68
2023-06-26T22:15:28.648Z,6.57
2023-06-26T22:18:31.348Z,7.40
2023-06-26T22:21:35.092Z,5.20
2023-06-26T22:24:37.960Z,6.20
2023-06-26T22:27:46.326Z,8.95
2023-06-26T22:30:49.122Z,6.28
2023-06-26T22:33:51.969Z,9.48
2023-06-26T22:36:54.675Z,5.90
2023-06-26T22:39:57.394Z,5.32
2023-06-26T22:43:00.133Z,8.80
2023-06-26T22:46:02.829Z,6.30
2023-06-26T22:49:05.602Z,7.85
2023-06-26T22:52:08.538Z,5.47
2023-06-26T22:55:11.742Z,6.63
2023-06-26T22:58:14.540Z,5.88
2023-06-26T23:01:18.659Z,5.80
2023-06-26T23:04:21.879Z,5.40
2023-06-26T23:07:24.875Z,7.17
2023-06-26T23:10:27.661Z,5.82
2023-06-26T23:13:30.427Z,6.13
2023-06-26T23:16:35.993Z,6.00
2023-06-26T23:19:41.890Z,7.70
2023-06-26T23:22:44.932Z,6.63
2023-06-26T23:25:47.726Z,5.72
2023-06-26T23:28:50.674Z,6.05
2023-06-26T23:31:53.495Z,6.53
2023-06-26T23:34:57.245Z,8.00
2023-06-26T23:38:02.409Z,5.47
2023-06-26T23:41:05.683Z,6.20
2023-06-26T23:44:08.440Z,6.65
2023-06-26T23:47:11.182Z,4.95
2023-06-26T23:50:14.428Z,6.10
2023-06-26T23:53:17.239Z,5.40
2023-06-26T23:56:19.933Z,7.07
2023-06-26T23:59:22.742Z,7.32
